createdAt,value
2023-04-21T00:00:04.632Z,39.00
2023-04-21T00:06:23.172Z,43.00
2023-04-21T00:12:29.758Z,37.00
2023-04-21T00:18:39.566Z,36.00
2023-04-21T00:24:42.297Z,42.00
2023-04-21T00:30:31.036Z,42.00
2023-04-21T00:42:54.816Z,45.00
2023-04-21T00:48:52.215Z,43.50
2023-04-21T00:54:24.388Z,41.00
2023-04-21T01:07:03.985Z,43.33
2023-04-21T01:12:32.487Z,38.00
2023-04-21T01:17:48.059Z,38.00
2023-04-21T01:23:32.959Z,37.00
2023-04-21T01:29:20.826Z,41.33
2023-04-21T01:34:35.077Z,46.00
2023-04-21T01:39:47.049Z,45.00
2023-04-21T01:45:12.369Z,37.50
2023-04-21T01:50:45.027Z,41.00
2023-04-21T01:56:17.325Z,47.00
2023-04-21T02:02:04.195Z,40.00
2023-04-21T02:08:09.661Z,48.00
2023-04-21T02:13:29.434Z,39.00
2023-04-21T02:18:45.744Z,39.67
2023-04-21T02:23:59.619Z,45.00
2023-04-21T02:29:21.747Z,38.00
2023-04-21T02:35:07.748Z,46.00
2023-04-21T02:40:44.239Z,43.00
2023-04-21T02:46:40.275Z,49.00
2023-04-21T02:52:03.695Z,53.00
2023-04-21T02:57:40.217Z,50.67
2023-04-21T03:02:46.061Z,48.00
2023-04-21T03:07:52.949Z,43.00
2023-04-21T03:13:11.744Z,51.00
2023-04-21T03:18:36.402Z,53.00
2023-04-21T03:23:49.610Z,56.00
2023-04-21T03:35:19.232Z,50.50
2023-04-21T03:40:27.768Z,50.33
2023-04-21T03:45:50.729Z,49.50
2023-04-21T03:51:09.005Z,57.00
2023-04-21T03:56:40.829Z,57.00
2023-04-21T04:02:39.521Z,52.33
2023-04-21T04:08:10.885Z,60.50
2023-04-21T04:13:26.830Z,40.00
2023-04-21T04:18:33.467Z,56.00
2023-04-21T04:23:39.963Z,59.00
2023-04-21T04:29:37.269Z,59.50
2023-04-21T04:35:05.619Z,54.00
2023-04-21T04:40:20.907Z,62.00
2023-04-21T04:45:32.259Z,58.00
2023-04-21T04:51:26.518Z,62.00
2023-04-21T04:57:19.293Z,61.00
2023-04-21T05:03:16.136Z,55.00
2023-04-21T05:09:40.477Z,56.33
2023-04-21T05:16:04.095Z,58.00
2023-04-21T05:21:43.116Z,55.33
2023-04-21T05:27:34.264Z,54.00
2023-04-21T05:39:10.802Z,46.50
2023-04-21T05:44:43.013Z,44.00
2023-04-21T05:50:32.387Z,45.00
2023-04-21T05:55:56.616Z,45.00
2023-04-21T06:01:13.204Z,40.50
2023-04-21T06:06:38.790Z,46.00
2023-04-21T06:12:09.362Z,41.00
2023-04-21T06:17:25.051Z,36.50
2023-04-21T06:22:47.025Z,45.00
2023-04-21T06:27:51.251Z,41.00
2023-04-21T06:32:57.959Z,39.00
2023-04-21T06:38:30.597Z,34.00
2023-04-21T06:44:22.470Z,44.00
2023-04-21T06:49:45.018Z,36.00
2023-04-21T06:55:30.238Z,34.00
2023-04-21T07:01:29.863Z,33.33
2023-04-21T07:07:42.179Z,38.00
2023-04-21T07:13:02.574Z,38.00
2023-04-21T07:18:49.545Z,28.00
2023-04-21T07:23:59.098Z,30.67
2023-04-21T07:29:10.167Z,27.00
2023-04-21T07:34:22.472Z,32.50
2023-04-21T07:39:26.454Z,27.00
2023-04-21T07:44:41.416Z,25.00
2023-04-21T07:55:36.305Z,27.00
2023-04-21T08:01:01.036Z,24.00
2023-04-21T08:06:50.561Z,25.33
2023-04-21T08:12:15.747Z,18.00
2023-04-21T08:17:19.635Z,27.00
2023-04-21T08:22:48.550Z,28.00
2023-04-21T08:28:10.932Z,29.00
2023-04-21T08:33:29.918Z,32.00
2023-04-21T08:38:44.827Z,29.00
2023-04-21T08:43:53.866Z,24.00
2023-04-21T08:49:03.216Z,25.50
2023-04-21T08:54:16.359Z,26.00
2023-04-21T08:59:20.124Z,22.00
2023-04-21T09:04:27.979Z,27.00
2023-04-21T09:09:31.592Z,31.00
2023-04-21T09:14:36.190Z,21.50
2023-04-21T09:19:39.886Z,24.00
2023-04-21T09:24:48.654Z,19.00
2023-04-21T09:29:54.604Z,26.50
2023-04-21T09:35:17.125Z,28.00
2023-04-21T09:40:40.707Z,24.67
2023-04-21T09:45:44.239Z,23.50
2023-04-21T09:51:37.390Z,24.00
2023-04-21T09:57:34.068Z,17.50
2023-04-21T10:03:03.416Z,18.00
2023-04-21T10:08:17.593Z,17.00
2023-04-21T10:13:35.132Z,20.00
2023-04-21T10:18:43.357Z,21.00
2023-04-21T10:23:53.184Z,19.00
2023-04-21T10:29:06.421Z,18.50
2023-04-21T10:34:31.076Z,17.00
2023-04-21T10:39:45.983Z,15.00
2023-04-21T10:45:10.964Z,15.00
2023-04-21T10:50:20.586Z,11.50
2023-04-21T10:55:30.460Z,14.00
2023-04-21T11:00:34.292Z,13.00
2023-04-21T11:05:58.102Z,11.50
2023-04-21T11:11:04.001Z,16.00
2023-04-21T11:16:10.415Z,19.00
2023-04-21T11:21:22.230Z,16.00
2023-04-21T11:26:38.457Z,16.50
2023-04-21T11:31:48.116Z,16.00
2023-04-21T11:36:53.155Z,17.67
2023-04-21T11:41:56.881Z,17.00
2023-04-21T11:47:00.452Z,13.50
2023-04-21T11:52:04.216Z,14.00
2023-04-21T11:57:07.900Z,15.00
2023-04-21T12:02:14.896Z,17.50
2023-04-21T12:07:22.898Z,19.00
2023-04-21T12:12:26.919Z,14.00
2023-04-21T12:17:39.041Z,14.00
2023-04-21T12:22:44.093Z,13.50
2023-04-21T12:27:54.984Z,13.00
2023-04-21T12:32:58.784Z,12.00
2023-04-21T12:38:02.188Z,11.00
2023-04-21T12:43:06.122Z,12.00
2023-04-21T12:48:09.693Z,10.00
2023-04-21T12:53:13.799Z,11.00
2023-04-21T12:58:17.773Z,12.50
2023-04-21T13:03:25.214Z,10.00
2023-04-21T13:08:35.884Z,5.00
2023-04-21T13:13:41.854Z,10.00
2023-04-21T13:18:46.199Z,10.50
2023-04-21T13:23:49.917Z,9.00
2023-04-21T13:28:56.771Z,9.00
2023-04-21T13:34:01.519Z,9.00
2023-04-21T13:39:05.860Z,8.00
2023-04-21T13:44:12.368Z,15.50
2023-04-21T13:49:16.409Z,7.00
2023-04-21T13:54:20.393Z,7.00
2023-04-21T13:59:24.014Z,10.00
2023-04-21T14:04:27.517Z,8.00
2023-04-21T14:09:40.465Z,8.00
2023-04-21T14:14:43.761Z,6.00
2023-04-21T14:19:47.611Z,9.00
2023-04-21T14:24:51.310Z,11.50
2023-04-21T14:30:23.347Z,8.00
2023-04-21T14:35:36.279Z,8.67
2023-04-21T14:40:39.787Z,9.50
2023-04-21T14:45:46.583Z,7.50
2023-04-21T14:50:49.959Z,7.50
2023-04-21T14:55:56.551Z,6.50
2023-04-21T15:01:02.321Z,8.50
2023-04-21T15:06:06.278Z,10.00
2023-04-21T15:11:09.810Z,10.67
2023-04-21T15:16:15.715Z,8.00
2023-04-21T15:21:25.246Z,8.00
2023-04-21T15:26:30.661Z,9.00
2023-04-21T15:31:34.341Z,9.00
2023-04-21T15:36:38.091Z,10.00
2023-04-21T15:41:41.645Z,10.00
2023-04-21T15:46:45.328Z,11.00
2023-04-21T15:51:56.815Z,10.50
2023-04-21T15:57:08.112Z,9.00
2023-04-21T16:02:14.856Z,7.50
2023-04-21T16:07:18.333Z,10.50
2023-04-21T16:12:21.618Z,7.50
2023-04-21T16:17:26.632Z,9.00
2023-04-21T16:22:31.490Z,7.00
2023-04-21T16:27:44.194Z,7.00
2023-04-21T16:33:30.276Z,12.50
2023-04-21T16:38:55.338Z,19.00
2023-04-21T16:45:02.853Z,10.00
2023-04-21T16:51:21.093Z,11.50
2023-04-21T16:57:46.160Z,10.00
2023-04-21T17:03:51.446Z,13.50
2023-04-21T17:09:59.872Z,13.67
2023-04-21T17:15:54.936Z,6.00
2023-04-21T17:22:10.431Z,12.00
2023-04-21T17:28:26.402Z,21.00
2023-04-21T17:34:50.796Z,25.00
2023-04-21T17:40:53.038Z,17.33
2023-04-21T17:46:58.874Z,17.00
2023-04-21T17:52:53.286Z,16.00
2023-04-21T17:58:57.840Z,16.00
2023-04-21T18:05:02.522Z,16.00
2023-04-21T18:11:18.500Z,15.50
2023-04-21T18:17:38.843Z,18.50
2023-04-21T18:23:50.488Z,18.00
2023-04-21T18:29:40.451Z,22.00
2023-04-21T18:35:22.687Z,21.00
2023-04-21T18:41:35.625Z,29.33
2023-04-21T18:47:40.508Z,29.00
2023-04-21T18:53:55.495Z,30.00
2023-04-21T18:59:48.519Z,26.00
2023-04-21T19:06:13.141Z,26.00
2023-04-21T19:12:17.172Z,29.00
2023-04-21T19:18:43.252Z,22.00
2023-04-21T19:24:53.846Z,22.67
2023-04-21T19:30:54.800Z,22.50
2023-04-21T19:36:57.299Z,25.00
2023-04-21T19:43:11.623Z,24.00
2023-04-21T19:49:21.607Z,29.50
2023-04-21T19:55:43.996Z,26.00
2023-04-21T20:02:28.419Z,25.00
2023-04-21T20:09:12.174Z,29.00
2023-04-21T20:15:27.060Z,25.50
2023-04-21T20:21:51.974Z,29.00
2023-04-21T20:28:18.306Z,19.00
2023-04-21T20:34:37.314Z,19.67
2023-04-21T20:41:04.128Z,16.50
2023-04-21T20:47:31.480Z,33.50
2023-04-21T20:53:55.800Z,33.00
2023-04-21T21:00:19.665Z,35.00
2023-04-21T21:06:21.994Z,27.00
2023-04-21T21:12:46.833Z,20.00
2023-04-21T21:19:07.020Z,24.50
2023-04-21T21:25:33.322Z,22.00
2023-04-21T21:31:40.348Z,28.00
2023-04-21T21:38:21.550Z,53.00
2023-04-21T21:44:45.822Z,37.50
2023-04-21T21:50:36.378Z,29.00
2023-04-21T21:56:26.434Z,30.50
2023-04-21T22:02:51.463Z,36.00
2023-04-21T22:09:15.811Z,39.00
2023-04-21T22:14:58.550Z,39.00
2023-04-21T22:21:22.706Z,45.50
2023-04-21T22:27:25.256Z,41.00
2023-04-21T22:33:50.514Z,35.50
2023-04-21T22:40:17.109Z,41.00
2023-04-21T22:46:36.522Z,40.00
2023-04-21T22:52:12.497Z,39.50
2023-04-21T22:58:45.365Z,37.50
2023-04-21T23:11:14.700Z,35.50
2023-04-21T23:17:24.594Z,43.00
2023-04-21T23:23:39.552Z,42.00
2023-04-21T23:30:03.765Z,44.50
2023-04-21T23:36:10.846Z,46.00
2023-04-21T23:42:47.778Z,47.00
2023-04-21T23:49:12.181Z,50.00
2023-04-21T23:55:56.527Z,45.00
